Time;durP1;ratioP1;P1;durP2;ratioP2;P2;SDS_P1;SDS_P2;PMS_P1;PMS_P2;Temp;Humidity;BMP_temperature;BMP_pressure;BME280_temperature;BME280_humidity;BME280_pressure;Samples;Min_cycle;Max_cycle;Signal;HPM_P1;HPM_P2
2022/07/18 00:00:29;;;;;;;5.47;2.95;;;;;;;14.78;63.50;101496.05;1680070;85;25323;-84
2022/07/18 00:02:57;;;;;;;5.35;2.52;;;;;;;14.72;63.53;101495.45;1682114;83;25837;-86
2022/07/18 00:05:24;;;;;;;4.75;3.15;;;;;;;14.66;63.59;101493.02;1666308;85;25302;-85
2022/07/18 00:07:50;;;;;;;5.10;3.00;;;;;;;14.58;63.78;101495.30;1681668;83;27437;-84
2022/07/18 00:10:17;;;;;;;6.42;3.12;;;;;;;14.51;63.77;101490.38;1666434;84;25950;-84
2022/07/18 00:12:43;;;;;;;5.60;3.65;;;;;;;14.45;63.91;101485.75;1677786;85;25754;-85
2022/07/18 00:15:10;;;;;;;6.83;3.20;;;;;;;14.40;64.13;101487.33;1652990;85;26369;-85
2022/07/18 00:17:38;;;;;;;4.17;3.10;;;;;;;14.33;64.28;101489.95;1667047;85;26032;-84
2022/07/18 00:20:09;;;;;;;4.97;3.17;;;;;;;14.29;64.56;101489.16;1667114;84;28343;-85
2022/07/18 00:22:35;;;;;;;7.17;2.95;;;;;;;14.23;64.84;101488.55;1677946;85;25824;-84
2022/07/18 00:25:03;;;;;;;9.05;4.20;;;;;;;14.19;64.90;101489.95;1662349;86;26110;-86
2022/07/18 00:27:29;;;;;;;6.17;3.35;;;;;;;14.20;65.23;101492.98;1662840;84;25791;-84
2022/07/18 00:29:56;;;;;;;4.65;3.33;;;;;;;14.20;65.54;101485.70;1662298;86;25366;-85
2022/07/18 00:32:22;;;;;;;5.58;3.85;;;;;;;14.21;65.78;101487.90;1681610;83;27461;-83
2022/07/18 00:34:49;;;;;;;5.85;3.75;;;;;;;14.18;65.67;101483.72;1666196;84;25749;-84
2022/07/18 00:37:15;;;;;;;5.20;3.35;;;;;;;14.14;65.83;101493.20;1671227;85;26040;-84
2022/07/18 00:39:41;;;;;;;3.58;2.95;;;;;;;14.09;65.90;101489.41;1679421;85;25909;-83
2022/07/18 00:42:08;;;;;;;3.80;3.17;;;;;;;14.03;65.96;101488.28;1662630;84;25983;-83
2022/07/18 00:44:34;;;;;;;5.00;3.20;;;;;;;13.98;66.16;101487.19;1662665;84;26916;-83
2022/07/18 00:47:02;;;;;;;5.22;3.47;;;;;;;13.90;66.44;101488.11;1651007;86;25826;-83
2022/07/18 00:49:29;;;;;;;4.60;3.30;;;;;;;13.85;66.60;101486.51;1663518;84;25822;-84
2022/07/18 00:51:57;;;;;;;6.78;3.47;;;;;;;13.80;66.88;101480.83;1662029;84;25776;-83
2022/07/18 00:54:23;;;;;;;7.58;4.08;;;;;;;13.76;67.07;101484.92;1662472;84;25284;-83
2022/07/18 00:56:50;;;;;;;9.28;3.98;;;;;;;13.70;67.24;101487.86;1662807;84;27640;-83
2022/07/18 00:59:18;;;;;;;6.05;3.40;;;;;;;13.67;67.25;101477.95;1662780;85;25694;-83
2022/07/18 01:01:47;;;;;;;10.05;4.28;;;;;;;13.69;67.39;101481.30;1661863;86;25890;-83
2022/07/18 01:04:20;;;;;;;6.33;3.77;;;;;;;13.67;67.37;101486.88;1662670;86;26441;-84
2022/07/18 01:06:49;;;;;;;5.28;3.60;;;;;;;13.68;67.61;101489.06;1682110;85;26576;-83
2022/07/18 01:09:17;;;;;;;7.53;3.85;;;;;;;13.64;67.70;101496.66;1681772;85;27480;-83
2022/07/18 01:11:46;;;;;;;10.43;5.62;;;;;;;13.60;67.90;101494.01;1665481;84;25898;-84
2022/07/18 01:14:14;;;;;;;4.40;3.47;;;;;;;13.56;67.91;101495.40;1680467;85;25846;-84
2022/07/18 01:16:40;;;;;;;7.87;3.45;;;;;;;13.53;68.10;101494.94;1682517;85;26565;-84
2022/07/18 01:19:07;;;;;;;6.50;3.75;;;;;;;13.50;68.19;101494.80;1667026;84;25988;-82
2022/07/18 01:21:33;;;;;;;8.70;3.92;;;;;;;13.48;68.41;101493.30;1681758;85;27451;-84
2022/07/18 01:23:59;;;;;;;6.78;3.12;;;;;;;13.49;68.38;101499.03;1666787;84;26496;-85
2022/07/18 01:26:26;;;;;;;6.20;3.58;;;;;;;13.49;68.42;101497.68;1679818;83;25820;-83
2022/07/18 01:28:52;;;;;;;3.62;2.95;;;;;;;13.48;68.50;101494.14;1666560;84;26482;-84
2022/07/18 01:31:19;;;;;;;6.50;3.55;;;;;;;13.47;68.70;101495.69;1667913;85;25928;-84
2022/07/18 01:33:45;;;;;;;6.55;3.80;;;;;;;13.44;68.70;101500.92;1666876;85;27617;-83
2022/07/18 01:36:11;;;;;;;8.48;3.72;;;;;;;13.44;68.99;101502.27;1679901;83;25997;-84
2022/07/18 01:38:38;;;;;;;6.12;3.90;;;;;;;13.42;69.12;101496.73;1653012;85;25842;-84
2022/07/18 01:41:05;;;;;;;7.12;4.08;;;;;;;13.41;69.37;101494.55;1666989;84;25798;-84
2022/07/18 01:43:32;;;;;;;6.80;3.83;;;;;;;13.40;69.51;101496.92;1681608;85;25956;-87
2022/07/18 01:45:58;;;;;;;5.25;3.62;;;;;;;13.36;69.79;101496.12;1653161;85;27464;-85
2022/07/18 01:48:25;;;;;;;5.97;4.05;;;;;;;13.36;69.93;101496.12;1652451;86;25855;-84
2022/07/18 01:50:52;;;;;;;6.42;4.30;;;;;;;13.39;70.06;101497.09;1666351;85;25841;-84
2022/07/18 01:53:19;;;;;;;7.12;3.90;;;;;;;13.41;70.00;101496.42;1681654;83;25736;-84
2022/07/18 01:55:46;;;;;;;7.72;4.10;;;;;;;13.42;70.06;101491.35;1666675;84;26520;-86
2022/07/18 01:58:12;;;;;;;5.85;3.40;;;;;;;13.46;70.10;101504.77;1679222;84;27616;-86
2022/07/18 02:00:39;;;;;;;5.05;4.08;;;;;;;13.45;70.00;101502.58;1662065;85;25903;-83
2022/07/18 02:03:05;;;;;;;8.28;4.60;;;;;;;13.42;69.98;101506.16;1662142;84;26032;-84
2022/07/18 02:05:32;;;;;;;4.83;3.50;;;;;;;13.39;69.92;101503.81;1680358;84;25933;-84
2022/07/18 02:07:58;;;;;;;4.60;3.75;;;;;;;13.35;69.88;101510.08;1662035;84;25910;-83
2022/07/18 02:10:24;;;;;;;7.33;4.22;;;;;;;13.30;70.07;101509.78;1661906;86;28377;-84
2022/07/18 02:12:51;;;;;;;5.75;3.80;;;;;;;13.26;70.29;101508.48;1681437;83;25606;-82
2022/07/18 02:15:18;;;;;;;5.62;4.30;;;;;;;13.21;70.26;101508.20;1666866;85;25889;-83
2022/07/18 02:17:44;;;;;;;6.55;4.00;;;;;;;13.17;70.43;101510.94;1665664;84;25938;-83
2022/07/18 02:20:14;;;;;;;8.65;4.17;;;;;;;13.14;70.48;101508.09;1662119;86;26037;-85
2022/07/18 02:22:41;;;;;;;11.95;4.62;;;;;;;13.14;70.56;101505.91;1662188;86;28273;-83
2022/07/18 02:25:08;;;;;;;10.30;4.78;;;;;;;13.12;70.80;101516.86;1660859;84;25979;-83
2022/07/18 02:27:35;;;;;;;6.30;4.28;;;;;;;13.07;70.94;101517.89;1679629;84;25941;-83
2022/07/18 02:30:02;;;;;;;10.55;4.87;;;;;;;13.07;71.03;101513.86;1666638;84;25915;-83
2022/07/18 02:32:28;;;;;;;6.12;3.90;;;;;;;13.07;71.29;101512.52;1680075;85;25841;-84
2022/07/18 02:34:54;;;;;;;6.58;4.00;;;;;;;13.08;71.16;101517.39;1668688;84;27479;-83
2022/07/18 02:37:21;;;;;;;8.30;4.45;;;;;;;13.06;71.26;101512.70;1680276;83;26328;-84
2022/07/18 02:39:47;;;;;;;10.00;4.33;;;;;;;13.04;71.23;101507.48;1661831;84;25831;-83
2022/07/18 02:42:14;;;;;;;9.75;4.40;;;;;;;13.02;71.28;101512.71;1661992;86;25826;-83
2022/07/18 02:44:40;;;;;;;9.18;4.12;;;;;;;12.98;71.22;101513.56;1680027;85;26036;-83
2022/07/18 02:47:07;;;;;;;6.15;4.03;;;;;;;12.95;71.34;101511.75;1682397;83;27656;-83
2022/07/18 02:49:33;;;;;;;7.60;4.60;;;;;;;12.93;71.48;101509.25;1683316;83;25894;-83
2022/07/18 02:52:06;;;;;;;12.70;5.00;;;;;;;12.91;71.54;101508.59;1681780;84;25828;-84
2022/07/18 02:54:35;;;;;;;8.43;5.25;;;;;;;12.91;71.67;101514.47;1678606;83;26613;-83
2022/07/18 02:57:05;;;;;;;7.67;4.75;;;;;;;12.92;72.00;101513.44;1664005;84;26223;-84
2022/07/18 02:59:32;;;;;;;8.05;5.60;;;;;;;12.92;72.08;101522.34;1672841;84;27489;-83
2022/07/18 03:01:58;;;;;;;8.70;5.00;;;;;;;12.93;72.22;101520.01;1656109;84;25923;-82
2022/07/18 03:04:25;;;;;;;10.10;5.15;;;;;;;12.91;72.26;101515.81;1663132;84;25364;-82
2022/07/18 03:06:52;;;;;;;8.68;5.80;;;;;;;12.93;72.35;101520.01;1666524;83;25967;-83
2022/07/18 03:09:18;;;;;;;9.53;5.55;;;;;;;12.96;72.28;101522.31;1650267;85;25845;-85
2022/07/18 03:11:45;;;;;;;10.25;5.25;;;;;;;13.00;72.37;101521.47;1639543;85;27422;-84
2022/07/18 03:14:12;;;;;;;6.95;4.72;;;;;;;12.99;72.34;101518.44;1664057;84;26046;-83
2022/07/18 03:16:38;;;;;;;9.03;5.00;;;;;;;12.96;72.35;101520.12;1657570;84;26211;-82
2022/07/18 03:19:04;;;;;;;8.53;4.65;;;;;;;12.91;72.30;101522.04;1656920;84;25813;-83
2022/07/18 03:21:31;;;;;;;15.10;5.12;;;;;;;12.89;72.36;101522.73;1669293;84;26428;-83
2022/07/18 03:23:57;;;;;;;9.75;4.42;;;;;;;12.88;72.57;101518.85;1677804;84;27703;-84
2022/07/18 03:26:23;;;;;;;7.60;4.10;;;;;;;12.86;72.72;101523.58;1681382;83;25850;-84
2022/07/18 03:28:50;;;;;;;7.83;4.65;;;;;;;12.83;72.62;101522.08;1656868;85;25905;-83
2022/07/18 03:31:17;;;;;;;7.15;4.25;;;;;;;12.82;72.91;101524.95;1683847;84;25914;-83
2022/07/18 03:33:43;;;;;;;6.47;4.50;;;;;;;12.83;73.14;101527.45;1668887;84;25785;-83
2022/07/18 03:36:10;;;;;;;10.23;5.05;;;;;;;12.85;73.06;101529.98;1684484;83;27828;-83
2022/07/18 03:38:36;;;;;;;7.67;5.10;;;;;;;12.87;73.35;101533.33;1695114;83;25774;-83
2022/07/18 03:41:04;;;;;;;6.53;5.05;;;;;;;12.89;73.27;101532.14;1662219;84;26342;-83
2022/07/18 03:43:30;;;;;;;9.73;4.92;;;;;;;12.92;73.58;101531.77;1661991;84;26588;-82
2022/07/18 03:45:57;;;;;;;7.45;5.55;;;;;;;12.96;73.64;101536.27;1661540;84;26125;-83
2022/07/18 03:48:23;;;;;;;9.98;6.03;;;;;;;13.01;73.79;101533.38;1658718;86;27434;-83
2022/07/18 03:50:49;;;;;;;10.48;5.00;;;;;;;13.04;73.69;101537.57;1661477;85;25816;-83
2022/07/18 03:53:16;;;;;;;11.75;5.85;;;;;;;13.06;73.95;101536.41;1676521;84;26043;-84
2022/07/18 03:55:42;;;;;;;7.22;5.10;;;;;;;13.07;73.90;101532.69;1680794;84;25920;-83
2022/07/18 03:58:08;;;;;;;6.95;5.15;;;;;;;13.06;73.82;101539.11;1666583;84;25385;-83
2022/07/18 04:00:35;;;;;;;5.97;4.92;;;;;;;13.08;73.89;101537.56;1651124;85;28223;-83
2022/07/18 04:03:01;;;;;;;6.70;4.90;;;;;;;13.12;74.07;101534.84;1656529;85;26015;-84
2022/07/18 04:05:27;;;;;;;8.93;4.50;;;;;;;13.17;74.21;101532.96;1647151;84;26489;-83
2022/07/18 04:07:54;;;;;;;11.18;5.00;;;;;;;13.22;74.37;101538.11;1662829;84;25839;-84
2022/07/18 04:10:20;;;;;;;9.80;5.12;;;;;;;13.27;74.52;101533.53;1662076;84;25905;-84
2022/07/18 04:12:51;;;;;;;11.05;5.25;;;;;;;13.32;74.66;101537.88;1654646;84;27526;-84
2022/07/18 04:15:20;;;;;;;7.12;4.95;;;;;;;13.38;74.80;101533.11;1653680;84;25997;-84
2022/07/18 04:17:47;;;;;;;9.85;4.90;;;;;;;13.43;74.77;101535.56;1658800;84;25817;-83
2022/07/18 04:20:15;;;;;;;10.53;5.33;;;;;;;13.50;74.92;101539.70;1669281;84;26569;-83
2022/07/18 04:22:55;;;;;;;8.10;4.67;;;;;;;13.56;75.11;101533.59;1690812;84;26526;-84
2022/07/18 04:25:25;;;;;;;12.82;5.62;;;;;;;13.61;75.00;101527.16;1683451;84;27454;-84
2022/07/18 04:27:52;;;;;;;10.63;5.97;;;;;;;13.67;75.26;101523.22;1688239;84;26543;-83
2022/07/18 04:30:22;;;;;;;8.40;5.80;;;;;;;13.73;75.15;101522.47;1678278;83;25923;-83
2022/07/18 04:32:48;;;;;;;12.55;6.35;;;;;;;13.81;75.10;101526.42;1683750;84;25843;-82
2022/07/18 04:35:15;;;;;;;12.70;6.58;;;;;;;13.93;75.27;101522.27;1683845;84;25554;-84
2022/07/18 04:37:42;;;;;;;10.25;5.45;;;;;;;14.02;75.03;101519.47;1679430;84;28228;-85
2022/07/18 04:40:10;;;;;;;8.85;5.42;;;;;;;14.08;74.73;101522.75;1676690;84;26034;-83
2022/07/18 04:42:37;;;;;;;11.33;4.65;;;;;;;14.16;74.72;101519.45;1680298;84;26024;-84
2022/07/18 04:45:05;;;;;;;8.95;5.15;;;;;;;14.22;74.54;101526.77;1674038;84;25793;-85
2022/07/18 04:47:32;;;;;;;7.33;4.75;;;;;;;14.29;74.49;101527.73;1679103;84;25545;-84
2022/07/18 04:49:58;;;;;;;9.45;4.75;;;;;;;14.34;74.25;101523.97;1683424;84;27460;-85
2022/07/18 04:52:24;;;;;;;9.45;4.62;;;;;;;14.46;74.88;101531.88;1681577;83;25805;-84
2022/07/18 04:54:51;;;;;;;9.45;5.72;;;;;;;14.56;74.44;101528.91;1681824;83;25775;-84
2022/07/18 04:57:18;;;;;;;7.75;4.83;;;;;;;14.64;74.18;101531.48;1683260;83;26322;-83
2022/07/18 04:59:45;;;;;;;8.53;4.50;;;;;;;14.69;73.95;101530.41;1683350;83;25908;-82
2022/07/18 05:02:13;;;;;;;11.08;4.62;;;;;;;14.73;73.86;101535.73;1682934;83;28245;-82
2022/07/18 05:04:39;;;;;;;8.13;4.35;;;;;;;14.78;73.97;101535.16;1681808;84;25753;-85
2022/07/18 05:07:06;;;;;;;9.58;5.17;;;;;;;14.80;73.86;101528.52;1682124;83;25870;-84
2022/07/18 05:09:33;;;;;;;7.08;4.58;;;;;;;14.85;74.02;101538.74;1652684;85;25794;-84
2022/07/18 05:12:00;;;;;;;8.70;5.05;;;;;;;14.91;74.06;101533.42;1682059;83;25829;-84
2022/07/18 05:14:26;;;;;;;7.55;4.83;;;;;;;15.00;73.82;101539.52;1667022;84;27702;-84
2022/07/18 05:16:52;;;;;;;8.63;4.95;;;;;;;15.10;73.98;101538.67;1666617;84;26473;-84
2022/07/18 05:19:18;;;;;;;8.83;4.03;;;;;;;15.14;73.76;101539.45;1681746;85;25869;-84
2022/07/18 05:21:45;;;;;;;8.35;4.67;;;;;;;15.19;73.48;101532.97;1666121;84;26048;-84
2022/07/18 05:24:12;;;;;;;7.65;3.87;;;;;;;15.26;73.34;101528.47;1680526;83;26032;-85
2022/07/18 05:26:38;;;;;;;6.20;4.53;;;;;;;15.35;73.51;101530.52;1662093;86;27295;-84
2022/07/18 05:29:04;;;;;;;9.28;6.10;;;;;;;15.42;73.21;101525.98;1661833;84;25857;-82
2022/07/18 05:31:31;;;;;;;10.35;5.30;;;;;;;15.53;73.82;101528.69;1679566;85;25894;-84
2022/07/18 05:33:57;;;;;;;9.73;5.37;;;;;;;15.60;73.28;101531.78;1682482;83;25788;-84
2022/07/18 05:36:23;;;;;;;11.70;5.60;;;;;;;15.65;72.81;101536.59;1667547;85;25958;-84
2022/07/18 05:38:50;;;;;;;10.48;5.00;;;;;;;15.71;72.78;101529.89;1666321;84;27451;-84
2022/07/18 05:41:16;;;;;;;7.22;4.50;;;;;;;15.76;72.58;101526.05;1666301;84;25801;-85
2022/07/18 05:43:42;;;;;;;10.40;4.87;;;;;;;15.79;72.66;101527.02;1680097;83;25929;-85
2022/07/18 05:46:09;;;;;;;11.85;6.80;;;;;;;15.85;72.81;101532.14;1666353;84;25761;-84
2022/07/18 05:48:35;;;;;;;15.60;6.45;;;;;;;15.91;72.56;101521.91;1667322;84;26493;-84
2022/07/18 05:51:02;;;;;;;7.50;5.28;;;;;;;16.01;73.16;101529.97;1671546;85;27541;-84
2022/07/18 05:53:28;;;;;;;8.88;5.37;;;;;;;16.10;73.14;101530.10;1672432;84;25315;-85
2022/07/18 05:55:54;;;;;;;8.20;4.65;;;;;;;16.20;72.98;101525.70;1678754;85;25785;-85
2022/07/18 05:58:21;;;;;;;11.57;5.20;;;;;;;16.28;72.75;101526.87;1661931;84;26691;-85
2022/07/18 06:00:47;;;;;;;8.60;3.95;;;;;;;16.38;72.57;101529.21;1681357;83;26174;-84
2022/07/18 06:03:14;;;;;;;6.95;3.72;;;;;;;16.49;72.25;101521.84;1662040;84;27522;-84
2022/07/18 06:05:40;;;;;;;10.55;4.42;;;;;;;16.62;71.81;101520.56;1681346;83;25958;-83
2022/07/18 06:08:07;;;;;;;7.75;3.80;;;;;;;16.80;72.25;101520.84;1667067;85;25993;-83
2022/07/18 06:10:33;;;;;;;5.45;3.20;;;;;;;17.02;72.39;101520.98;1666990;85;25813;-85
2022/07/18 06:12:59;;;;;;;5.70;2.92;;;;;;;17.22;72.00;101516.41;1680396;83;25351;-86
2022/07/18 06:15:26;;;;;;;8.03;3.55;;;;;;;17.39;70.17;101521.72;1682696;83;27633;-86
2022/07/18 06:17:52;;;;;;;6.58;2.80;;;;;;;17.52;70.15;101528.52;1682505;83;26091;-86
2022/07/18 06:20:19;;;;;;;7.87;3.00;;;;;;;17.68;70.08;101527.27;1683058;84;26496;-86
2022/07/18 06:22:46;;;;;;;4.75;2.80;;;;;;;17.78;69.05;101523.59;1666194;84;25855;-86
2022/07/18 06:25:13;;;;;;;7.92;3.10;;;;;;;17.82;69.24;101525.34;1666726;85;25337;-84
2022/07/18 06:27:39;;;;;;;6.08;2.70;;;;;;;17.86;68.77;101519.80;1679766;85;27457;-85
2022/07/18 06:30:09;;;;;;;8.78;3.35;;;;;;;17.89;68.88;101526.17;1682099;83;25871;-86
2022/07/18 06:32:36;;;;;;;3.20;2.55;;;;;;;17.88;68.34;101523.98;1651716;85;25817;-85
2022/07/18 06:35:03;;;;;;;7.35;4.33;;;;;;;17.90;67.93;101528.66;1656442;84;25913;-84
2022/07/18 06:37:29;;;;;;;7.47;3.70;;;;;;;17.94;68.21;101527.73;1681423;84;25926;-84
2022/07/18 06:39:56;;;;;;;7.10;3.47;;;;;;;17.97;68.43;101526.77;1651930;85;27456;-83
2022/07/18 06:42:22;;;;;;;5.65;3.15;;;;;;;18.01;67.97;101521.23;1636274;85;25835;-84
2022/07/18 06:44:48;;;;;;;11.12;3.08;;;;;;;18.06;68.21;101525.51;1664343;84;25785;-85
2022/07/18 06:47:15;;;;;;;4.72;2.70;;;;;;;18.12;68.39;101518.39;1681495;83;25781;-84
2022/07/18 06:49:41;;;;;;;8.40;2.45;;;;;;;18.19;68.06;101517.84;1681544;83;26313;-83
2022/07/18 06:52:11;;;;;;;5.95;2.60;;;;;;;18.29;68.76;101523.12;1685277;83;28446;-84
2022/07/18 06:54:37;;;;;;;6.60;2.40;;;;;;;18.39;67.53;101522.69;1677621;84;25802;-84
2022/07/18 06:57:06;;;;;;;4.95;2.45;;;;;;;18.41;66.69;101520.59;1683020;84;25310;-84
2022/07/18 06:59:32;;;;;;;4.37;1.85;;;;;;;18.48;66.97;101527.66;1692397;84;25754;-83
2022/07/18 07:01:58;;;;;;;5.75;2.27;;;;;;;18.56;66.73;101523.89;1688290;84;25877;-84
2022/07/18 07:04:24;;;;;;;5.75;2.35;;;;;;;18.62;66.55;101527.09;1689593;83;27972;-83
2022/07/18 07:06:51;;;;;;;4.95;2.55;;;;;;;18.65;65.80;101528.55;1681764;84;25863;-84
2022/07/18 07:09:17;;;;;;;6.42;2.20;;;;;;;18.71;66.05;101527.67;1669111;84;25766;-84
2022/07/18 07:11:43;;;;;;;5.58;2.10;;;;;;;18.82;66.37;101526.98;1684683;84;26629;-84
2022/07/18 07:14:10;;;;;;;4.95;1.98;;;;;;;18.88;66.56;101524.20;1686969;83;25959;-84
2022/07/18 07:16:36;;;;;;;6.40;2.45;;;;;;;18.94;65.62;101532.01;1676607;84;26961;-83
2022/07/18 07:19:02;;;;;;;6.50;2.17;;;;;;;19.00;65.09;101528.41;1681638;85;25898;-85
2022/07/18 07:21:29;;;;;;;6.40;2.95;;;;;;;19.10;66.42;101518.72;1681436;83;25843;-85
2022/07/18 07:23:55;;;;;;;3.83;2.17;;;;;;;19.29;66.60;101524.23;1651633;84;25767;-84
2022/07/18 07:26:21;;;;;;;7.15;2.50;;;;;;;19.40;65.12;101516.22;1686951;83;26007;-85
2022/07/18 07:28:48;;;;;;;3.67;2.25;;;;;;;19.47;63.65;101514.28;1681192;83;28907;-85
2022/07/18 07:31:14;;;;;;;9.15;2.22;;;;;;;19.49;64.18;101510.81;1682054;85;25890;-85
2022/07/18 07:33:40;;;;;;;9.83;2.10;;;;;;;19.53;64.42;101512.02;1682137;83;25751;-85
2022/07/18 07:36:07;;;;;;;2.52;1.92;;;;;;;19.59;64.70;101510.32;1678621;83;26574;-85
2022/07/18 07:38:33;;;;;;;4.22;2.15;;;;;;;19.65;64.45;101508.06;1681981;83;25873;-85
2022/07/18 07:41:01;;;;;;;4.12;1.72;;;;;;;19.77;64.36;101519.33;1682703;84;27457;-85
2022/07/18 07:43:27;;;;;;;4.97;2.10;;;;;;;19.92;65.06;101508.08;1667058;85;26070;-84
2022/07/18 07:45:55;;;;;;;2.20;1.85;;;;;;;20.00;63.75;101507.77;1653399;84;25883;-85
2022/07/18 07:48:23;;;;;;;3.40;1.85;;;;;;;20.09;65.01;101498.78;1677001;85;25877;-84
2022/07/18 07:50:53;;;;;;;5.53;1.87;;;;;;;20.27;64.63;101502.38;1664561;84;26027;-84
2022/07/18 07:53:19;;;;;;;6.00;2.02;;;;;;;20.35;64.30;101503.94;1662559;86;27028;-86
2022/07/18 07:55:45;;;;;;;4.15;1.87;;;;;;;20.42;63.88;101513.66;1661587;86;26433;-84
2022/07/18 07:58:12;;;;;;;5.15;1.50;;;;;;;20.49;62.31;101500.81;1651169;85;25952;-87
2022/07/18 08:00:38;;;;;;;7.20;2.30;;;;;;;20.50;62.79;101503.84;1662860;84;25852;-87
2022/07/18 08:03:07;;;;;;;7.42;1.85;;;;;;;20.49;62.24;101502.69;1661874;85;25855;-86
2022/07/18 08:05:37;;;;;;;3.72;2.17;;;;;;;20.47;61.64;101506.17;1679592;85;27467;-85
2022/07/18 08:08:06;;;;;;;4.27;1.80;;;;;;;20.53;61.92;101506.64;1666439;85;26170;-87
2022/07/18 08:10:33;;;;;;;3.87;1.60;;;;;;;20.51;62.31;101479.63;1697974;79;27193;-84
2022/07/18 08:12:59;;;;;;;6.10;2.10;;;;;;;20.73;61.80;101508.02;1694304;82;25811;-86
2022/07/18 08:15:26;;;;;;;3.52;2.08;;;;;;;20.71;61.56;101503.86;1669135;85;25330;-86
2022/07/18 08:17:53;;;;;;;5.83;2.05;;;;;;;20.59;61.10;101507.88;1733111;82;27444;-88
2022/07/18 08:23:29;;;;;;;2.92;1.87;;;;;;;20.73;61.30;101506.66;1748842;80;25931;-87
2022/07/18 08:25:57;;;;;;;4.42;2.47;;;;;;;20.85;61.06;101501.23;1727018;82;26461;-86
2022/07/18 08:28:24;;;;;;;6.97;2.17;;;;;;;20.97;59.94;101498.55;1742865;81;25928;-86
2022/07/18 08:30:50;;;;;;;5.25;2.45;;;;;;;21.04;61.41;101497.95;1739727;81;28335;-86
2022/07/18 08:33:17;;;;;;;4.78;2.35;;;;;;;21.19;60.05;101495.63;1748336;81;26431;-85
2022/07/18 08:35:43;;;;;;;4.53;2.33;;;;;;;21.26;61.33;101502.61;1739042;81;25869;-85
2022/07/18 08:38:10;;;;;;;7.00;3.12;;;;;;;21.30;60.06;101492.89;1748822;81;26596;-85
2022/07/18 08:40:38;;;;;;;5.72;3.72;;;;;;;21.24;59.86;101500.66;1739160;81;25737;-86
2022/07/18 08:43:04;;;;;;;4.97;1.87;;;;;;;21.24;59.29;101495.20;1741835;80;27695;-86
2022/07/18 08:45:31;;;;;;;3.85;2.05;;;;;;;21.21;59.05;101490.21;1753655;80;26010;-86
2022/07/18 08:47:57;;;;;;;5.50;1.95;;;;;;;21.21;59.83;101484.76;1753567;81;25824;-85
2022/07/18 08:50:24;;;;;;;2.67;1.87;;;;;;;21.25;59.74;101489.23;1753747;81;26577;-86
2022/07/18 08:52:51;;;;;;;3.45;1.70;;;;;;;21.38;59.87;101487.64;1752263;81;25803;-87
2022/07/18 08:55:17;;;;;;;6.00;2.15;;;;;;;21.45;59.10;101486.45;1753623;80;27478;-86
2022/07/18 08:57:44;;;;;;;6.10;2.20;;;;;;;21.39;59.24;101475.13;1754080;81;26043;-87
2022/07/18 09:00:12;;;;;;;3.87;1.70;;;;;;;21.33;59.15;101480.17;1753639;80;25328;-86
2022/07/18 09:02:38;;;;;;;4.37;1.90;;;;;;;21.30;58.76;101486.61;1753967;80;25760;-87
2022/07/18 09:05:05;;;;;;;4.45;1.75;;;;;;;21.34;58.69;101487.27;1754181;81;25858;-85
2022/07/18 09:07:37;;;;;;;5.12;1.50;;;;;;;21.47;58.66;101484.84;1755044;80;27458;-86
2022/07/18 09:13:23;;;;;;;4.25;1.55;;;;;;;21.71;59.73;101482.41;1683022;78;26761;31
2022/07/18 09:16:09;;;;;;;3.77;1.60;;;;;;;21.90;59.36;101487.21;1673361;84;25737;-85
2022/07/18 09:18:48;;;;;;;6.53;1.62;;;;;;;21.96;58.32;101486.28;1708099;79;26482;-85
2022/07/18 09:21:21;;;;;;;2.58;1.40;;;;;;;21.95;57.28;101487.34;1721355;81;26896;-85
2022/07/18 09:23:51;;;;;;;5.42;1.82;;;;;;;22.00;58.94;101473.28;1719861;82;26070;-85
2022/07/18 09:26:43;;;;;;;5.30;1.42;;;;;;;22.16;58.17;101480.70;1721230;83;25743;-85
2022/07/18 09:29:16;;;;;;;4.58;1.50;;;;;;;22.34;57.51;101479.70;1720385;81;26388;-86
2022/07/18 09:31:49;;;;;;;5.15;1.72;;;;;;;22.35;57.73;101473.72;1722836;82;25808;-86
2022/07/18 09:34:35;;;;;;;5.83;1.80;;;;;;;22.42;56.68;101481.20;1715708;82;27429;-84
2022/07/18 09:37:02;;;;;;;3.37;1.20;;;;;;;22.43;55.57;101476.05;1726321;82;25864;-86
2022/07/18 09:39:29;;;;;;;2.55;1.55;;;;;;;22.34;56.05;101479.70;1722719;81;25805;-86
2022/07/18 09:42:15;;;;;;;3.47;1.62;;;;;;;22.36;55.91;101474.83;1722494;82;25916;-85
2022/07/18 09:44:42;;;;;;;4.33;1.80;;;;;;;22.36;56.02;101474.83;1741640;81;25773;-86
2022/07/18 09:47:09;;;;;;;4.05;1.50;;;;;;;22.35;55.95;101470.99;1724130;82;28297;-85
2022/07/18 09:49:36;;;;;;;6.33;2.58;;;;;;;22.26;55.63;101474.08;1721912;81;25913;-85
2022/07/18 09:52:08;;;;;;;8.03;1.40;;;;;;;22.28;55.87;101468.92;1730572;82;25889;-86
2022/07/18 09:54:43;;;;;;;8.90;1.67;;;;;;;22.42;56.06;101471.66;1731021;82;25823;-85
2022/07/18 09:57:26;;;;;;;5.08;1.87;;;;;;;22.55;55.77;101473.56;1724774;82;25825;-85
2022/07/18 09:59:53;;;;;;;5.25;1.85;;;;;;;22.65;55.28;101469.68;1728901;81;27535;-87
2022/07/18 10:02:20;;;;;;;3.83;1.75;;;;;;;22.76;55.21;101478.36;1749124;81;25715;-87
2022/07/18 10:04:47;;;;;;;6.62;1.47;;;;;;;22.93;54.97;101480.58;1729228;82;25625;-87
2022/07/18 10:07:16;;;;;;;5.28;1.22;;;;;;;22.97;54.54;101483.63;1730171;82;25985;-82
2022/07/18 10:09:44;;;;;;;5.78;1.50;;;;;;;23.00;54.04;101477.69;1732733;81;25875;-83
2022/07/18 10:12:11;;;;;;;2.20;1.40;;;;;;;22.99;53.66;101484.22;1728824;82;28315;-82
2022/07/18 10:14:38;;;;;;;4.45;1.52;;;;;;;23.12;53.53;101483.09;1734404;82;25986;-83
2022/07/18 10:17:05;;;;;;;3.58;1.47;;;;;;;23.22;53.58;101484.62;1730570;82;25313;-83
2022/07/18 10:19:35;;;;;;;4.33;2.15;;;;;;;23.34;53.53;101486.75;1731186;81;25741;-82
2022/07/18 10:22:01;;;;;;;1.85;1.17;;;;;;;23.43;53.04;101473.79;1736450;82;25971;-83
2022/07/18 10:24:30;;;;;;;1.87;1.57;;;;;;;23.56;53.17;101465.23;1730825;82;27492;-81
2022/07/18 10:27:18;;;;;;;4.85;1.37;;;;;;;23.62;52.70;101468.86;1725844;82;25925;-82
2022/07/18 10:30:12;;;;;;;5.25;1.62;;;;;;;23.61;52.41;101462.56;1742052;81;25877;-82
2022/07/18 10:32:39;;;;;;;3.58;1.25;;;;;;;23.58;53.24;101469.92;1735806;81;25902;-84
2022/07/18 10:35:07;;;;;;;4.75;1.60;;;;;;;23.50;51.54;101473.05;1750795;81;25299;-83
2022/07/18 10:37:34;;;;;;;1.77;1.27;;;;;;;23.39;52.40;101475.91;1745405;81;28260;-83
2022/07/18 10:40:28;;;;;;;4.58;1.40;;;;;;;23.33;52.63;101481.01;1756983;79;26021;-82
2022/07/18 10:43:32;;;;;;;1.92;1.40;;;;;;;23.27;52.75;101482.78;1756740;81;25813;-82
2022/07/18 10:46:00;;;;;;;2.42;1.02;;;;;;;23.16;52.65;101482.32;1732920;81;25860;-82
2022/07/18 10:48:41;;;;;;;3.42;1.45;;;;;;;23.15;53.47;101480.68;1753667;80;25756;-82
2022/07/18 10:51:15;;;;;;;5.75;1.82;;;;;;;23.20;52.73;101477.20;1756261;81;27482;-82
2022/07/18 10:54:04;;;;;;;1.77;1.40;;;;;;;23.25;52.96;101484.10;1759346;81;25860;-82
2022/07/18 10:56:42;;;;;;;3.33;1.00;;;;;;;23.34;52.05;101486.75;1741241;80;26010;-82
2022/07/18 10:59:19;;;;;;;3.55;1.35;;;;;;;23.37;52.31;101476.70;1747804;80;25750;-82
2022/07/18 11:01:50;;;;;;;2.02;1.22;;;;;;;23.45;52.54;101477.09;1728799;82;25845;-82
2022/07/18 11:04:30;;;;;;;;;;;;;;;23.48;51.62;101471.67;1752228;81;28364;-82
2022/07/18 11:07:11;;;;;;;3.62;1.30;;;;;;;23.48;51.42;101470.31;1703870;81;25816;-82
2022/07/18 11:09:46;;;;;;;3.15;1.70;;;;;;;23.51;52.07;101471.99;1753642;81;26604;-82
2022/07/18 11:12:30;;;;;;;2.92;1.30;;;;;;;23.46;51.41;101458.23;1727865;82;26800;-81
2022/07/18 11:15:05;;;;;;;3.33;1.65;;;;;;;23.44;51.75;101459.02;1725731;82;25846;-84
2022/07/18 11:18:04;;;;;;;3.52;1.57;;;;;;;23.59;53.18;101451.58;1732086;81;27422;-83
2022/07/18 11:20:44;;;;;;;12.58;3.55;;;;;;;23.80;52.86;101450.80;1737083;81;25516;-83
2022/07/18 11:23:26;;;;;;;10.53;3.08;;;;;;;23.90;52.40;101461.88;1734166;82;25714;-81
2022/07/18 11:25:57;;;;;;;6.30;2.37;;;;;;;23.90;51.61;101450.93;1728324;82;25971;-81
2022/07/18 11:28:28;;;;;;;4.80;2.72;;;;;;;23.91;51.58;101457.23;1741577;79;26021;-82
2022/07/18 11:31:07;;;;;;;7.95;2.15;;;;;;;24.00;51.79;101450.22;1733174;82;27528;-83
2022/07/18 11:33:38;;;;;;;5.55;2.05;;;;;;;24.09;51.45;101450.09;1726687;82;25938;-82
2022/07/18 11:36:08;;;;;;;2.67;1.40;;;;;;;24.12;50.72;101448.23;1724699;81;25299;-82